sensor_id;sensor_type;location;lat;lon;timestamp;P1;durP1;ratioP1;P2;durP2;ratioP2
65461;SDS011;53236;43.666;18.444;2023-04-06T00:00:58;33.47;;;20.00;;
65461;SDS011;53236;43.666;18.444;2023-04-06T00:03:24;38.43;;;21.47;;
65461;SDS011;53236;43.666;18.444;2023-04-06T00:05:50;34.80;;;22.50;;
65461;SDS011;53236;43.666;18.444;2023-04-06T00:08:16;38.53;;;22.77;;
65461;SDS011;53236;43.666;18.444;2023-04-06T00:10:42;25.83;;;18.23;;
65461;SDS011;53236;43.666;18.444;2023-04-06T00:13:07;25.70;;;17.67;;
65461;SDS011;53236;43.666;18.444;2023-04-06T00:15:33;31.50;;;19.77;;
65461;SDS011;53236;43.666;18.444;2023-04-06T00:17:59;30.23;;;18.93;;
65461;SDS011;53236;43.666;18.444;2023-04-06T00:20:25;38.80;;;22.07;;
65461;SDS011;53236;43.666;18.444;2023-04-06T00:22:51;34.53;;;21.53;;
65461;SDS011;53236;43.666;18.444;2023-04-06T00:25:17;32.17;;;20.00;;
65461;SDS011;53236;43.666;18.444;2023-04-06T00:27:43;30.27;;;19.40;;
65461;SDS011;53236;43.666;18.444;2023-04-06T00:30:09;31.93;;;20.67;;
65461;SDS011;53236;43.666;18.444;2023-04-06T00:32:35;29.30;;;19.40;;
65461;SDS011;53236;43.666;18.444;2023-04-06T00:35:04;31.33;;;19.73;;
65461;SDS011;53236;43.666;18.444;2023-04-06T00:37:30;27.20;;;18.37;;
65461;SDS011;53236;43.666;18.444;2023-04-06T00:39:56;26.50;;;16.83;;
65461;SDS011;53236;43.666;18.444;2023-04-06T00:42:23;29.20;;;18.47;;
65461;SDS011;53236;43.666;18.444;2023-04-06T00:44:52;33.47;;;20.97;;
65461;SDS011;53236;43.666;18.444;2023-04-06T00:47:22;31.73;;;20.57;;
65461;SDS011;53236;43.666;18.444;2023-04-06T00:49:50;26.80;;;19.50;;
65461;SDS011;53236;43.666;18.444;2023-04-06T00:52:17;23.80;;;16.97;;
65461;SDS011;53236;43.666;18.444;2023-04-06T00:54:43;27.00;;;17.70;;
65461;SDS011;53236;43.666;18.444;2023-04-06T00:57:10;27.43;;;17.87;;
65461;SDS011;53236;43.666;18.444;2023-04-06T00:59:37;30.30;;;19.60;;
65461;SDS011;53236;43.666;18.444;2023-04-06T01:02:03;30.33;;;19.67;;
65461;SDS011;53236;43.666;18.444;2023-04-06T01:04:29;28.60;;;19.17;;
65461;SDS011;53236;43.666;18.444;2023-04-06T01:06:55;28.67;;;17.87;;
65461;SDS011;53236;43.666;18.444;2023-04-06T01:09:21;33.57;;;20.90;;
65461;SDS011;53236;43.666;18.444;2023-04-06T01:11:47;35.67;;;22.30;;
65461;SDS011;53236;43.666;18.444;2023-04-06T01:14:12;35.57;;;22.23;;
65461;SDS011;53236;43.666;18.444;2023-04-06T01:16:39;36.73;;;22.20;;
65461;SDS011;53236;43.666;18.444;2023-04-06T01:19:12;39.03;;;23.60;;
65461;SDS011;53236;43.666;18.444;2023-04-06T01:21:38;36.63;;;23.93;;
65461;SDS011;53236;43.666;18.444;2023-04-06T01:24:04;34.30;;;22.50;;
65461;SDS011;53236;43.666;18.444;2023-04-06T01:26:31;37.23;;;23.97;;
65461;SDS011;53236;43.666;18.444;2023-04-06T01:28:57;41.13;;;24.67;;
65461;SDS011;53236;43.666;18.444;2023-04-06T01:31:23;34.80;;;22.20;;
65461;SDS011;53236;43.666;18.444;2023-04-06T01:33:50;36.97;;;22.33;;
65461;SDS011;53236;43.666;18.444;2023-04-06T01:36:16;32.33;;;21.90;;
65461;SDS011;53236;43.666;18.444;2023-04-06T01:38:41;33.77;;;21.33;;
65461;SDS011;53236;43.666;18.444;2023-04-06T01:41:08;35.03;;;21.23;;
65461;SDS011;53236;43.666;18.444;2023-04-06T01:43:34;34.20;;;21.40;;
65461;SDS011;53236;43.666;18.444;2023-04-06T01:46:00;28.47;;;19.10;;
65461;SDS011;53236;43.666;18.444;2023-04-06T01:48:26;30.73;;;21.07;;
65461;SDS011;53236;43.666;18.444;2023-04-06T01:50:52;31.33;;;20.50;;
65461;SDS011;53236;43.666;18.444;2023-04-06T01:53:18;27.53;;;18.57;;
65461;SDS011;53236;43.666;18.444;2023-04-06T01:55:44;29.60;;;20.03;;
65461;SDS011;53236;43.666;18.444;2023-04-06T01:58:10;31.47;;;21.33;;
65461;SDS011;53236;43.666;18.444;2023-04-06T02:00:36;32.83;;;22.43;;
65461;SDS011;53236;43.666;18.444;2023-04-06T02:03:02;32.27;;;21.77;;
65461;SDS011;53236;43.666;18.444;2023-04-06T02:05:29;33.03;;;21.77;;
65461;SDS011;53236;43.666;18.444;2023-04-06T02:07:55;36.57;;;21.97;;
65461;SDS011;53236;43.666;18.444;2023-04-06T02:10:21;34.40;;;22.07;;
65461;SDS011;53236;43.666;18.444;2023-04-06T02:12:48;34.63;;;21.20;;
65461;SDS011;53236;43.666;18.444;2023-04-06T02:15:14;32.60;;;22.07;;
65461;SDS011;53236;43.666;18.444;2023-04-06T02:17:41;34.63;;;22.07;;
65461;SDS011;53236;43.666;18.444;2023-04-06T02:20:07;31.63;;;21.40;;
65461;SDS011;53236;43.666;18.444;2023-04-06T02:22:34;32.07;;;20.33;;
65461;SDS011;53236;43.666;18.444;2023-04-06T02:25:00;33.83;;;21.63;;
65461;SDS011;53236;43.666;18.444;2023-04-06T02:27:27;34.30;;;20.73;;
65461;SDS011;53236;43.666;18.444;2023-04-06T02:29:53;32.50;;;20.60;;
65461;SDS011;53236;43.666;18.444;2023-04-06T02:32:19;28.33;;;19.90;;
65461;SDS011;53236;43.666;18.444;2023-04-06T02:34:44;29.93;;;20.30;;
65461;SDS011;53236;43.666;18.444;2023-04-06T02:37:10;33.47;;;21.67;;
65461;SDS011;53236;43.666;18.444;2023-04-06T02:39:36;30.23;;;20.03;;
65461;SDS011;53236;43.666;18.444;2023-04-06T02:42:01;28.87;;;19.20;;
65461;SDS011;53236;43.666;18.444;2023-04-06T02:44:27;33.20;;;20.20;;
65461;SDS011;53236;43.666;18.444;2023-04-06T02:46:53;30.23;;;19.50;;
65461;SDS011;53236;43.666;18.444;2023-04-06T02:49:19;33.23;;;19.77;;
65461;SDS011;53236;43.666;18.444;2023-04-06T02:51:44;28.83;;;20.10;;
65461;SDS011;53236;43.666;18.444;2023-04-06T02:54:10;27.40;;;19.00;;
65461;SDS011;53236;43.666;18.444;2023-04-06T02:56:36;27.13;;;18.57;;
65461;SDS011;53236;43.666;18.444;2023-04-06T02:59:01;31.03;;;19.33;;
65461;SDS011;53236;43.666;18.444;2023-04-06T03:01:27;32.20;;;18.90;;
65461;SDS011;53236;43.666;18.444;2023-04-06T03:03:53;29.23;;;19.60;;
65461;SDS011;53236;43.666;18.444;2023-04-06T03:06:18;37.43;;;20.40;;
65461;SDS011;53236;43.666;18.444;2023-04-06T03:08:44;28.87;;;18.17;;
65461;SDS011;53236;43.666;18.444;2023-04-06T03:11:10;27.80;;;18.40;;
65461;SDS011;53236;43.666;18.444;2023-04-06T03:13:36;27.53;;;17.90;;
65461;SDS011;53236;43.666;18.444;2023-04-06T03:16:04;30.80;;;19.80;;
65461;SDS011;53236;43.666;18.444;2023-04-06T03:18:30;33.27;;;20.93;;
65461;SDS011;53236;43.666;18.444;2023-04-06T03:20:56;35.77;;;20.83;;
65461;SDS011;53236;43.666;18.444;2023-04-06T03:23:22;28.53;;;19.30;;
65461;SDS011;53236;43.666;18.444;2023-04-06T03:25:47;34.03;;;20.90;;
65461;SDS011;53236;43.666;18.444;2023-04-06T03:28:13;27.63;;;19.17;;
65461;SDS011;53236;43.666;18.444;2023-04-06T03:30:39;28.20;;;18.77;;
65461;SDS011;53236;43.666;18.444;2023-04-06T03:33:05;25.27;;;18.20;;
65461;SDS011;53236;43.666;18.444;2023-04-06T03:35:31;32.60;;;20.03;;
65461;SDS011;53236;43.666;18.444;2023-04-06T03:37:57;28.97;;;18.70;;
65461;SDS011;53236;43.666;18.444;2023-04-06T03:40:22;30.57;;;19.80;;
65461;SDS011;53236;43.666;18.444;2023-04-06T03:42:48;32.40;;;19.77;;
65461;SDS011;53236;43.666;18.444;2023-04-06T03:45:14;27.53;;;19.00;;
65461;SDS011;53236;43.666;18.444;2023-04-06T03:47:40;29.47;;;19.60;;
65461;SDS011;53236;43.666;18.444;2023-04-06T03:50:06;30.10;;;18.00;;
65461;SDS011;53236;43.666;18.444;2023-04-06T03:52:32;28.97;;;19.67;;
65461;SDS011;53236;43.666;18.444;2023-04-06T03:54:57;32.83;;;21.03;;
65461;SDS011;53236;43.666;18.444;2023-04-06T03:57:23;32.40;;;19.93;;
65461;SDS011;53236;43.666;18.444;2023-04-06T03:59:49;30.57;;;20.33;;
65461;SDS011;53236;43.666;18.444;2023-04-06T04:02:14;35.70;;;21.37;;
65461;SDS011;53236;43.666;18.444;2023-04-06T04:04:40;34.43;;;22.13;;
65461;SDS011;53236;43.666;18.444;2023-04-06T04:07:06;38.20;;;22.20;;
65461;SDS011;53236;43.666;18.444;2023-04-06T04:09:32;35.20;;;22.97;;
65461;SDS011;53236;43.666;18.444;2023-04-06T04:11:57;36.83;;;23.23;;
65461;SDS011;53236;43.666;18.444;2023-04-06T04:14:23;35.57;;;23.43;;
65461;SDS011;53236;43.666;18.444;2023-04-06T04:16:49;33.13;;;21.37;;
65461;SDS011;53236;43.666;18.444;2023-04-06T04:19:14;39.20;;;24.10;;
65461;SDS011;53236;43.666;18.444;2023-04-06T04:21:44;37.00;;;23.90;;
65461;SDS011;53236;43.666;18.444;2023-04-06T04:24:10;40.00;;;24.43;;
65461;SDS011;53236;43.666;18.444;2023-04-06T04:26:36;39.17;;;26.00;;
65461;SDS011;53236;43.666;18.444;2023-04-06T04:29:03;42.83;;;23.93;;
65461;SDS011;53236;43.666;18.444;2023-04-06T04:31:29;40.63;;;25.60;;
65461;SDS011;53236;43.666;18.444;2023-04-06T04:33:55;34.40;;;23.17;;
65461;SDS011;53236;43.666;18.444;2023-04-06T04:36:21;33.57;;;21.13;;
65461;SDS011;53236;43.666;18.444;2023-04-06T04:38:48;37.53;;;25.90;;
65461;SDS011;53236;43.666;18.444;2023-04-06T04:41:13;38.97;;;23.77;;
65461;SDS011;53236;43.666;18.444;2023-04-06T04:43:39;40.93;;;26.83;;
65461;SDS011;53236;43.666;18.444;2023-04-06T04:46:05;42.40;;;27.33;;
65461;SDS011;53236;43.666;18.444;2023-04-06T04:48:31;51.43;;;30.07;;
65461;SDS011;53236;43.666;18.444;2023-04-06T04:50:57;71.93;;;39.97;;
65461;SDS011;53236;43.666;18.444;2023-04-06T04:53:23;92.20;;;47.50;;
65461;SDS011;53236;43.666;18.444;2023-04-06T04:55:49;64.03;;;38.17;;
65461;SDS011;53236;43.666;18.444;2023-04-06T04:58:15;75.57;;;44.90;;
65461;SDS011;53236;43.666;18.444;2023-04-06T05:00:44;57.97;;;34.83;;
65461;SDS011;53236;43.666;18.444;2023-04-06T05:03:15;49.43;;;31.60;;
65461;SDS011;53236;43.666;18.444;2023-04-06T05:05:47;52.70;;;31.30;;
65461;SDS011;53236;43.666;18.444;2023-04-06T05:08:13;53.90;;;34.03;;
65461;SDS011;53236;43.666;18.444;2023-04-06T05:10:39;51.20;;;32.90;;
65461;SDS011;53236;43.666;18.444;2023-04-06T05:13:05;53.83;;;35.30;;
65461;SDS011;53236;43.666;18.444;2023-04-06T05:15:30;59.10;;;37.17;;
65461;SDS011;53236;43.666;18.444;2023-04-06T05:17:56;66.57;;;39.30;;
65461;SDS011;53236;43.666;18.444;2023-04-06T05:20:22;62.93;;;40.00;;
65461;SDS011;53236;43.666;18.444;2023-04-06T05:22:48;60.97;;;38.93;;
65461;SDS011;53236;43.666;18.444;2023-04-06T05:25:14;64.30;;;39.80;;
65461;SDS011;53236;43.666;18.444;2023-04-06T05:27:40;58.47;;;39.40;;
65461;SDS011;53236;43.666;18.444;2023-04-06T05:30:07;60.17;;;39.63;;
65461;SDS011;53236;43.666;18.444;2023-04-06T05:32:33;52.23;;;34.57;;
65461;SDS011;53236;43.666;18.444;2023-04-06T05:34:59;54.83;;;34.87;;
65461;SDS011;53236;43.666;18.444;2023-04-06T05:37:25;55.13;;;34.53;;
65461;SDS011;53236;43.666;18.444;2023-04-06T05:39:51;49.90;;;34.20;;
65461;SDS011;53236;43.666;18.444;2023-04-06T05:42:16;52.37;;;32.10;;
65461;SDS011;53236;43.666;18.444;2023-04-06T05:44:42;42.53;;;28.57;;
65461;SDS011;53236;43.666;18.444;2023-04-06T05:47:08;58.90;;;35.70;;
65461;SDS011;53236;43.666;18.444;2023-04-06T05:49:34;56.77;;;37.63;;
65461;SDS011;53236;43.666;18.444;2023-04-06T05:52:00;58.77;;;37.40;;
65461;SDS011;53236;43.666;18.444;2023-04-06T05:54:26;67.33;;;42.70;;
65461;SDS011;53236;43.666;18.444;2023-04-06T05:56:51;76.83;;;46.33;;
65461;SDS011;53236;43.666;18.444;2023-04-06T05:59:17;80.27;;;51.37;;
65461;SDS011;53236;43.666;18.444;2023-04-06T06:01:43;77.70;;;48.77;;
65461;SDS011;53236;43.666;18.444;2023-04-06T06:04:09;79.70;;;50.83;;
65461;SDS011;53236;43.666;18.444;2023-04-06T06:06:35;72.40;;;47.67;;
65461;SDS011;53236;43.666;18.444;2023-04-06T06:09:01;82.33;;;51.17;;
65461;SDS011;53236;43.666;18.444;2023-04-06T06:11:28;80.37;;;49.07;;
65461;SDS011;53236;43.666;18.444;2023-04-06T06:13:55;71.73;;;47.33;;
65461;SDS011;53236;43.666;18.444;2023-04-06T06:16:21;90.40;;;57.20;;
65461;SDS011;53236;43.666;18.444;2023-04-06T06:18:47;75.67;;;48.40;;
65461;SDS011;53236;43.666;18.444;2023-04-06T06:21:13;69.37;;;45.07;;
65461;SDS011;53236;43.666;18.444;2023-04-06T06:23:41;72.97;;;48.93;;
65461;SDS011;53236;43.666;18.444;2023-04-06T06:26:07;65.63;;;42.77;;
65461;SDS011;53236;43.666;18.444;2023-04-06T06:28:33;59.03;;;38.07;;
65461;SDS011;53236;43.666;18.444;2023-04-06T06:30:59;57.33;;;35.07;;
65461;SDS011;53236;43.666;18.444;2023-04-06T06:33:26;48.87;;;31.87;;
65461;SDS011;53236;43.666;18.444;2023-04-06T06:35:51;49.30;;;30.73;;
65461;SDS011;53236;43.666;18.444;2023-04-06T06:38:17;47.53;;;31.37;;
65461;SDS011;53236;43.666;18.444;2023-04-06T06:40:44;46.10;;;29.53;;
65461;SDS011;53236;43.666;18.444;2023-04-06T06:43:11;43.77;;;28.13;;
65461;SDS011;53236;43.666;18.444;2023-04-06T06:45:36;40.57;;;26.23;;
65461;SDS011;53236;43.666;18.444;2023-04-06T06:48:02;39.17;;;24.00;;
65461;SDS011;53236;43.666;18.444;2023-04-06T06:50:28;33.37;;;21.80;;
65461;SDS011;53236;43.666;18.444;2023-04-06T06:52:54;37.50;;;21.70;;
65461;SDS011;53236;43.666;18.444;2023-04-06T06:55:20;31.30;;;20.13;;
65461;SDS011;53236;43.666;18.444;2023-04-06T06:57:46;28.23;;;18.40;;
65461;SDS011;53236;43.666;18.444;2023-04-06T07:00:12;26.20;;;17.07;;
65461;SDS011;53236;43.666;18.444;2023-04-06T07:02:39;28.40;;;16.87;;
65461;SDS011;53236;43.666;18.444;2023-04-06T07:05:05;29.20;;;17.57;;
65461;SDS011;53236;43.666;18.444;2023-04-06T07:07:32;30.93;;;18.47;;
65461;SDS011;53236;43.666;18.444;2023-04-06T07:09:58;27.10;;;17.47;;
65461;SDS011;53236;43.666;18.444;2023-04-06T07:12:25;25.07;;;17.00;;
65461;SDS011;53236;43.666;18.444;2023-04-06T07:14:51;25.50;;;17.30;;
65461;SDS011;53236;43.666;18.444;2023-04-06T07:17:17;26.63;;;16.77;;
65461;SDS011;53236;43.666;18.444;2023-04-06T07:19:43;24.03;;;16.03;;
65461;SDS011;53236;43.666;18.444;2023-04-06T07:22:09;24.83;;;15.80;;
65461;SDS011;53236;43.666;18.444;2023-04-06T07:24:34;31.20;;;19.90;;
65461;SDS011;53236;43.666;18.444;2023-04-06T07:27:00;31.33;;;20.83;;
65461;SDS011;53236;43.666;18.444;2023-04-06T07:29:26;27.87;;;17.73;;
65461;SDS011;53236;43.666;18.444;2023-04-06T07:31:53;29.67;;;18.60;;
65461;SDS011;53236;43.666;18.444;2023-04-06T07:34:19;31.97;;;21.53;;
65461;SDS011;53236;43.666;18.444;2023-04-06T07:36:45;27.53;;;18.43;;
65461;SDS011;53236;43.666;18.444;2023-04-06T07:39:11;26.83;;;18.87;;
65461;SDS011;53236;43.666;18.444;2023-04-06T07:41:36;42.77;;;27.03;;
65461;SDS011;53236;43.666;18.444;2023-04-06T07:44:02;31.17;;;20.23;;
65461;SDS011;53236;43.666;18.444;2023-04-06T07:46:28;42.83;;;25.73;;
65461;SDS011;53236;43.666;18.444;2023-04-06T07:48:55;34.60;;;20.63;;
65461;SDS011;53236;43.666;18.444;2023-04-06T07:51:22;25.50;;;16.53;;
65461;SDS011;53236;43.666;18.444;2023-04-06T07:53:50;30.27;;;15.57;;
65461;SDS011;53236;43.666;18.444;2023-04-06T07:56:16;32.63;;;20.13;;
65461;SDS011;53236;43.666;18.444;2023-04-06T07:58:42;39.27;;;24.67;;
65461;SDS011;53236;43.666;18.444;2023-04-06T08:01:07;22.90;;;15.10;;
65461;SDS011;53236;43.666;18.444;2023-04-06T08:03:34;22.10;;;13.40;;
65461;SDS011;53236;43.666;18.444;2023-04-06T08:06:00;24.47;;;16.03;;
65461;SDS011;53236;43.666;18.444;2023-04-06T08:08:26;22.40;;;14.90;;
65461;SDS011;53236;43.666;18.444;2023-04-06T08:10:52;25.13;;;15.83;;
65461;SDS011;53236;43.666;18.444;2023-04-06T08:13:17;25.63;;;14.60;;
65461;SDS011;53236;43.666;18.444;2023-04-06T08:15:43;22.40;;;14.33;;
65461;SDS011;53236;43.666;18.444;2023-04-06T08:18:09;25.93;;;15.47;;
65461;SDS011;53236;43.666;18.444;2023-04-06T08:20:35;21.73;;;14.70;;
65461;SDS011;53236;43.666;18.444;2023-04-06T08:23:01;22.27;;;14.33;;
65461;SDS011;53236;43.666;18.444;2023-04-06T08:25:26;21.53;;;13.90;;
65461;SDS011;53236;43.666;18.444;2023-04-06T08:27:52;22.87;;;15.13;;
65461;SDS011;53236;43.666;18.444;2023-04-06T08:30:18;22.47;;;14.37;;
65461;SDS011;53236;43.666;18.444;2023-04-06T08:32:44;20.40;;;13.73;;
65461;SDS011;53236;43.666;18.444;2023-04-06T08:35:11;19.10;;;12.53;;
65461;SDS011;53236;43.666;18.444;2023-04-06T08:37:37;20.10;;;12.00;;
65461;SDS011;53236;43.666;18.444;2023-04-06T08:40:03;23.77;;;12.27;;
65461;SDS011;53236;43.666;18.444;2023-04-06T08:42:31;17.97;;;12.20;;
65461;SDS011;53236;43.666;18.444;2023-04-06T08:44:58;18.07;;;12.67;;
65461;SDS011;53236;43.666;18.444;2023-04-06T08:47:25;20.13;;;12.17;;
65461;SDS011;53236;43.666;18.444;2023-04-06T08:49:51;17.13;;;11.60;;
65461;SDS011;53236;43.666;18.444;2023-04-06T08:52:18;15.97;;;10.83;;
65461;SDS011;53236;43.666;18.444;2023-04-06T08:54:44;18.40;;;10.63;;
65461;SDS011;53236;43.666;18.444;2023-04-06T08:57:10;20.30;;;12.97;;
65461;SDS011;53236;43.666;18.444;2023-04-06T08:59:37;17.80;;;10.80;;
65461;SDS011;53236;43.666;18.444;2023-04-06T09:02:04;18.53;;;12.37;;
65461;SDS011;53236;43.666;18.444;2023-04-06T09:04:32;22.47;;;13.73;;
65461;SDS011;53236;43.666;18.444;2023-04-06T09:07:00;18.87;;;13.63;;
65461;SDS011;53236;43.666;18.444;2023-04-06T09:09:26;19.13;;;11.80;;
65461;SDS011;53236;43.666;18.444;2023-04-06T09:11:52;19.10;;;10.10;;
65461;SDS011;53236;43.666;18.444;2023-04-06T09:14:39;16.50;;;11.13;;
65461;SDS011;53236;43.666;18.444;2023-04-06T09:17:05;17.67;;;10.93;;
65461;SDS011;53236;43.666;18.444;2023-04-06T09:19:31;14.80;;;10.03;;
65461;SDS011;53236;43.666;18.444;2023-04-06T09:22:06;18.43;;;12.43;;
65461;SDS011;53236;43.666;18.444;2023-04-06T09:24:50;19.27;;;12.17;;
65461;SDS011;53236;43.666;18.444;2023-04-06T09:27:17;19.93;;;13.97;;
65461;SDS011;53236;43.666;18.444;2023-04-06T09:30:02;18.50;;;12.30;;
65461;SDS011;53236;43.666;18.444;2023-04-06T09:32:32;22.70;;;14.47;;
65461;SDS011;53236;43.666;18.444;2023-04-06T09:35:09;19.87;;;13.33;;
65461;SDS011;53236;43.666;18.444;2023-04-06T09:37:35;20.33;;;13.80;;
65461;SDS011;53236;43.666;18.444;2023-04-06T09:40:02;24.17;;;15.23;;
65461;SDS011;53236;43.666;18.444;2023-04-06T09:42:32;22.90;;;14.83;;
65461;SDS011;53236;43.666;18.444;2023-04-06T09:44:59;20.10;;;12.47;;
65461;SDS011;53236;43.666;18.444;2023-04-06T09:47:26;18.33;;;12.57;;
65461;SDS011;53236;43.666;18.444;2023-04-06T09:49:57;17.37;;;12.23;;
65461;SDS011;53236;43.666;18.444;2023-04-06T09:52:24;22.60;;;12.97;;
65461;SDS011;53236;43.666;18.444;2023-04-06T09:55:02;28.50;;;18.20;;
65461;SDS011;53236;43.666;18.444;2023-04-06T09:58:13;20.90;;;14.27;;
65461;SDS011;53236;43.666;18.444;2023-04-06T10:00:28;81.50;;;49.77;;
65461;SDS011;53236;43.666;18.444;2023-04-06T10:05:55;21.07;;;12.27;;
65461;SDS011;53236;43.666;18.444;2023-04-06T10:08:27;21.43;;;12.90;;
65461;SDS011;53236;43.666;18.444;2023-04-06T10:10:53;19.60;;;11.73;;
65461;SDS011;53236;43.666;18.444;2023-04-06T10:13:20;15.37;;;10.47;;
65461;SDS011;53236;43.666;18.444;2023-04-06T10:15:48;19.10;;;12.83;;
65461;SDS011;53236;43.666;18.444;2023-04-06T10:18:15;22.13;;;10.80;;
65461;SDS011;53236;43.666;18.444;2023-04-06T10:20:42;17.80;;;11.77;;
65461;SDS011;53236;43.666;18.444;2023-04-06T10:23:26;18.47;;;11.50;;
65461;SDS011;53236;43.666;18.444;2023-04-06T10:26:05;17.97;;;12.40;;
65461;SDS011;53236;43.666;18.444;2023-04-06T10:28:32;18.60;;;11.97;;
65461;SDS011;53236;43.666;18.444;2023-04-06T10:31:01;21.00;;;13.07;;
65461;SDS011;53236;43.666;18.444;2023-04-06T10:33:30;20.90;;;13.67;;
65461;SDS011;53236;43.666;18.444;2023-04-06T10:35:56;22.67;;;13.03;;
65461;SDS011;53236;43.666;18.444;2023-04-06T10:38:32;22.50;;;11.77;;
65461;SDS011;53236;43.666;18.444;2023-04-06T10:41:07;18.27;;;12.43;;
65461;SDS011;53236;43.666;18.444;2023-04-06T10:43:34;16.77;;;11.60;;
65461;SDS011;53236;43.666;18.444;2023-04-06T10:46:01;18.60;;;12.43;;
65461;SDS011;53236;43.666;18.444;2023-04-06T10:51:06;20.23;;;14.00;;
65461;SDS011;53236;43.666;18.444;2023-04-06T10:53:35;21.43;;;12.27;;
65461;SDS011;53236;43.666;18.444;2023-04-06T10:56:01;314.83;;;156.63;;
65461;SDS011;53236;43.666;18.444;2023-04-06T10:58:28;68.90;;;41.30;;
65461;SDS011;53236;43.666;18.444;2023-04-06T11:00:55;48.07;;;33.20;;
65461;SDS011;53236;43.666;18.444;2023-04-06T11:03:21;34.80;;;22.53;;
65461;SDS011;53236;43.666;18.444;2023-04-06T11:05:49;16.37;;;11.23;;
65461;SDS011;53236;43.666;18.444;2023-04-06T11:08:23;15.03;;;10.40;;
65461;SDS011;53236;43.666;18.444;2023-04-06T11:11:03;18.13;;;10.30;;
65461;SDS011;53236;43.666;18.444;2023-04-06T11:13:37;16.70;;;11.03;;
65461;SDS011;53236;43.666;18.444;2023-04-06T11:24:11;16.80;;;10.30;;
65461;SDS011;53236;43.666;18.444;2023-04-06T11:26:45;18.00;;;9.73;;
65461;SDS011;53236;43.666;18.444;2023-04-06T11:29:22;13.37;;;8.80;;
65461;SDS011;53236;43.666;18.444;2023-04-06T11:31:50;13.93;;;9.07;;
65461;SDS011;53236;43.666;18.444;2023-04-06T11:34:21;13.10;;;9.03;;
65461;SDS011;53236;43.666;18.444;2023-04-06T11:36:49;12.73;;;9.57;;
65461;SDS011;53236;43.666;18.444;2023-04-06T11:39:20;11.50;;;8.33;;
65461;SDS011;53236;43.666;18.444;2023-04-06T11:41:49;13.17;;;8.67;;
65461;SDS011;53236;43.666;18.444;2023-04-06T11:44:27;13.53;;;9.50;;
65461;SDS011;53236;43.666;18.444;2023-04-06T11:47:02;14.13;;;8.43;;
65461;SDS011;53236;43.666;18.444;2023-04-06T11:49:30;12.70;;;8.97;;
65461;SDS011;53236;43.666;18.444;2023-04-06T11:51:58;14.60;;;9.27;;
65461;SDS011;53236;43.666;18.444;2023-04-06T11:54:34;12.47;;;8.20;;
65461;SDS011;53236;43.666;18.444;2023-04-06T11:57:03;14.27;;;9.07;;
65461;SDS011;53236;43.666;18.444;2023-04-06T11:59:30;12.93;;;9.30;;
65461;SDS011;53236;43.666;18.444;2023-04-06T12:01:56;14.53;;;9.60;;
65461;SDS011;53236;43.666;18.444;2023-04-06T12:04:22;13.67;;;8.90;;
65461;SDS011;53236;43.666;18.444;2023-04-06T12:06:48;16.00;;;9.67;;
65461;SDS011;53236;43.666;18.444;2023-04-06T12:09:14;13.47;;;9.07;;
65461;SDS011;53236;43.666;18.444;2023-04-06T12:11:42;17.80;;;9.83;;
65461;SDS011;53236;43.666;18.444;2023-04-06T12:14:08;15.50;;;10.77;;
65461;SDS011;53236;43.666;18.444;2023-04-06T12:16:34;13.77;;;8.60;;
65461;SDS011;53236;43.666;18.444;2023-04-06T12:19:00;16.90;;;9.07;;
65461;SDS011;53236;43.666;18.444;2023-04-06T12:21:27;21.10;;;13.33;;
65461;SDS011;53236;43.666;18.444;2023-04-06T12:23:53;16.50;;;10.40;;
65461;SDS011;53236;43.666;18.444;2023-04-06T12:26:20;12.67;;;8.73;;
65461;SDS011;53236;43.666;18.444;2023-04-06T12:28:46;16.27;;;11.60;;
65461;SDS011;53236;43.666;18.444;2023-04-06T12:31:15;13.77;;;9.63;;
65461;SDS011;53236;43.666;18.444;2023-04-06T12:33:42;13.67;;;8.67;;
65461;SDS011;53236;43.666;18.444;2023-04-06T12:36:11;46.30;;;24.13;;
65461;SDS011;53236;43.666;18.444;2023-04-06T12:38:38;14.13;;;9.40;;
65461;SDS011;53236;43.666;18.444;2023-04-06T12:41:06;16.00;;;8.13;;
65461;SDS011;53236;43.666;18.444;2023-04-06T12:43:31;13.27;;;7.53;;
65461;SDS011;53236;43.666;18.444;2023-04-06T12:45:57;13.07;;;8.83;;
65461;SDS011;53236;43.666;18.444;2023-04-06T12:48:24;29.90;;;16.57;;
65461;SDS011;53236;43.666;18.444;2023-04-06T12:51:00;15.97;;;8.60;;
65461;SDS011;53236;43.666;18.444;2023-04-06T12:53:27;29.77;;;17.87;;
65461;SDS011;53236;43.666;18.444;2023-04-06T12:55:53;59.90;;;35.40;;
65461;SDS011;53236;43.666;18.444;2023-04-06T12:58:20;11.37;;;7.83;;
65461;SDS011;53236;43.666;18.444;2023-04-06T13:00:47;8.97;;;6.20;;
65461;SDS011;53236;43.666;18.444;2023-04-06T13:03:13;20.80;;;12.60;;
65461;SDS011;53236;43.666;18.444;2023-04-06T13:05:49;11.53;;;7.40;;
65461;SDS011;53236;43.666;18.444;2023-04-06T13:08:16;10.33;;;7.27;;
65461;SDS011;53236;43.666;18.444;2023-04-06T13:10:50;12.33;;;7.73;;
65461;SDS011;53236;43.666;18.444;2023-04-06T13:13:26;12.90;;;7.00;;
65461;SDS011;53236;43.666;18.444;2023-04-06T13:15:54;14.80;;;7.63;;
65461;SDS011;53236;43.666;18.444;2023-04-06T13:18:23;10.17;;;6.50;;
65461;SDS011;53236;43.666;18.444;2023-04-06T13:20:49;10.30;;;6.93;;
65461;SDS011;53236;43.666;18.444;2023-04-06T13:23:15;25.43;;;15.30;;
65461;SDS011;53236;43.666;18.444;2023-04-06T13:25:41;14.67;;;10.03;;
65461;SDS011;53236;43.666;18.444;2023-04-06T13:28:07;15.83;;;10.97;;
65461;SDS011;53236;43.666;18.444;2023-04-06T13:30:34;8.67;;;5.53;;
65461;SDS011;53236;43.666;18.444;2023-04-06T13:33:00;12.23;;;7.63;;
65461;SDS011;53236;43.666;18.444;2023-04-06T13:35:26;12.40;;;7.70;;
65461;SDS011;53236;43.666;18.444;2023-04-06T13:37:52;10.03;;;5.30;;
65461;SDS011;53236;43.666;18.444;2023-04-06T13:40:18;12.67;;;6.40;;
65461;SDS011;53236;43.666;18.444;2023-04-06T13:42:44;11.23;;;6.40;;
65461;SDS011;53236;43.666;18.444;2023-04-06T13:45:11;13.30;;;8.33;;
65461;SDS011;53236;43.666;18.444;2023-04-06T13:47:37;11.70;;;6.00;;
65461;SDS011;53236;43.666;18.444;2023-04-06T13:50:03;10.37;;;6.17;;
65461;SDS011;53236;43.666;18.444;2023-04-06T13:52:29;15.07;;;10.97;;
65461;SDS011;53236;43.666;18.444;2023-04-06T13:54:55;13.00;;;8.10;;
65461;SDS011;53236;43.666;18.444;2023-04-06T13:57:20;12.77;;;7.77;;
65461;SDS011;53236;43.666;18.444;2023-04-06T13:59:46;10.93;;;7.17;;
65461;SDS011;53236;43.666;18.444;2023-04-06T14:02:12;10.60;;;6.80;;
65461;SDS011;53236;43.666;18.444;2023-04-06T14:04:38;18.03;;;13.83;;
65461;SDS011;53236;43.666;18.444;2023-04-06T14:07:04;25.80;;;14.70;;
65461;SDS011;53236;43.666;18.444;2023-04-06T14:09:32;16.67;;;10.30;;
65461;SDS011;53236;43.666;18.444;2023-04-06T14:11:58;19.20;;;10.63;;
65461;SDS011;53236;43.666;18.444;2023-04-06T14:14:24;34.13;;;20.93;;
65461;SDS011;53236;43.666;18.444;2023-04-06T14:16:50;14.67;;;7.13;;
65461;SDS011;53236;43.666;18.444;2023-04-06T14:19:17;13.87;;;9.07;;
65461;SDS011;53236;43.666;18.444;2023-04-06T14:21:43;15.83;;;9.80;;
65461;SDS011;53236;43.666;18.444;2023-04-06T14:24:13;10.73;;;5.53;;